sensor_id;sensor_type;location;lat;lon;timestamp;pressure;altitude;pressure_sealevel;temperature;humidity
39443;BME280;25147;52.142;9.960;2023-08-06T00:02:03;99813.31;;;14.63;100.00
39443;BME280;25147;52.142;9.960;2023-08-06T00:04:43;99782.84;;;14.56;100.00
39443;BME280;25147;52.142;9.960;2023-08-06T00:07:19;99778.00;;;14.68;100.00
39443;BME280;25147;52.142;9.960;2023-08-06T00:09:48;99768.63;;;14.60;100.00
39443;BME280;25147;52.142;9.960;2023-08-06T00:12:18;99444.66;;;12.60;100.00
39443;BME280;25147;52.142;9.960;2023-08-06T00:14:55;99649.00;;;13.84;100.00
39443;BME280;25147;52.142;9.960;2023-08-06T00:17:26;99592.28;;;13.56;100.00
39443;BME280;25147;52.142;9.960;2023-08-06T00:20:13;99762.50;;;14.60;100.00
39443;BME280;25147;52.142;9.960;2023-08-06T00:22:52;99770.09;;;14.68;100.00
39443;BME280;25147;52.142;9.960;2023-08-06T00:25:20;99262.19;;;11.63;100.00
39443;BME280;25147;52.142;9.960;2023-08-06T00:27:51;99632.84;;;13.71;100.00
39443;BME280;25147;52.142;9.960;2023-08-06T00:30:21;99305.47;;;11.73;100.00
39443;BME280;25147;52.142;9.960;2023-08-06T00:32:51;99564.59;;;13.48;100.00
39443;BME280;25147;52.142;9.960;2023-08-06T00:35:30;99456.66;;;12.65;100.00
39443;BME280;25147;52.142;9.960;2023-08-06T00:37:59;99735.47;;;14.55;100.00
39443;BME280;25147;52.142;9.960;2023-08-06T00:40:29;99746.00;;;14.55;100.00
39443;BME280;25147;52.142;9.960;2023-08-06T00:43:03;99559.94;;;13.54;100.00
39443;BME280;25147;52.142;9.960;2023-08-06T00:45:31;99549.00;;;13.43;100.00
39443;BME280;25147;52.142;9.960;2023-08-06T00:48:01;99471.84;;;13.01;100.00
39443;BME280;25147;52.142;9.960;2023-08-06T00:50:37;99558.16;;;13.55;100.00
39443;BME280;25147;52.142;9.960;2023-08-06T00:53:04;99728.44;;;14.55;100.00
39443;BME280;25147;52.142;9.960;2023-08-06T00:55:31;99598.47;;;13.76;100.00
39443;BME280;25147;52.142;9.960;2023-08-06T00:58:18;99709.09;;;14.36;100.00
39443;BME280;25147;52.142;9.960;2023-08-06T01:00:45;99693.13;;;14.39;100.00
39443;BME280;25147;52.142;9.960;2023-08-06T01:03:12;99611.75;;;13.93;100.00
39443;BME280;25147;52.142;9.960;2023-08-06T01:08:36;99569.78;;;13.70;100.00
39443;BME280;25147;52.142;9.960;2023-08-06T01:11:26;99641.44;;;13.97;100.00
39443;BME280;25147;52.142;9.960;2023-08-06T01:14:01;99244.47;;;11.68;100.00
39443;BME280;25147;52.142;9.960;2023-08-06T01:16:33;99728.09;;;14.42;100.00
39443;BME280;25147;52.142;9.960;2023-08-06T01:19:03;99419.75;;;12.70;100.00
39443;BME280;25147;52.142;9.960;2023-08-06T01:21:35;99701.03;;;14.39;100.00
39443;BME280;25147;52.142;9.960;2023-08-06T01:24:02;99428.47;;;12.71;100.00
39443;BME280;25147;52.142;9.960;2023-08-06T01:26:33;99441.84;;;12.64;100.00
39443;BME280;25147;52.142;9.960;2023-08-06T01:29:15;99667.03;;;14.14;100.00
39443;BME280;25147;52.142;9.960;2023-08-06T01:31:48;99474.84;;;12.92;100.00
39443;BME280;25147;52.142;9.960;2023-08-06T01:34:35;99275.69;;;11.74;100.00
39443;BME280;25147;52.142;9.960;2023-08-06T01:37:47;99266.56;;;11.62;100.00
39443;BME280;25147;52.142;9.960;2023-08-06T01:40:26;99405.44;;;12.55;100.00
39443;BME280;25147;52.142;9.960;2023-08-06T01:43:24;99206.94;;;11.23;100.00
39443;BME280;25147;52.142;9.960;2023-08-06T01:46:36;99306.03;;;11.81;100.00
39443;BME280;25147;52.142;9.960;2023-08-06T01:49:03;99536.38;;;13.31;100.00
39443;BME280;25147;52.142;9.960;2023-08-06T01:51:30;99428.78;;;12.63;100.00
39443;BME280;25147;52.142;9.960;2023-08-06T01:53:59;99453.50;;;12.79;100.00
39443;BME280;25147;52.142;9.960;2023-08-06T01:56:26;99385.94;;;12.40;100.00
39443;BME280;25147;52.142;9.960;2023-08-06T01:58:52;99509.91;;;13.13;100.00
39443;BME280;25147;52.142;9.960;2023-08-06T02:01:20;99517.16;;;13.29;100.00
39443;BME280;25147;52.142;9.960;2023-08-06T02:03:47;99384.78;;;12.48;100.00
39443;BME280;25147;52.142;9.960;2023-08-06T02:06:14;99663.88;;;14.05;100.00
39443;BME280;25147;52.142;9.960;2023-08-06T02:08:42;99667.09;;;14.12;100.00
39443;BME280;25147;52.142;9.960;2023-08-06T02:11:13;99263.47;;;11.75;100.00
39443;BME280;25147;52.142;9.960;2023-08-06T02:13:52;99406.19;;;12.59;100.00
39443;BME280;25147;52.142;9.960;2023-08-06T02:16:20;99567.94;;;13.51;100.00
39443;BME280;25147;52.142;9.960;2023-08-06T02:18:49;99580.28;;;13.49;100.00
39443;BME280;25147;52.142;9.960;2023-08-06T02:21:18;99578.09;;;13.60;100.00
39443;BME280;25147;52.142;9.960;2023-08-06T02:23:45;99681.28;;;14.08;100.00
39443;BME280;25147;52.142;9.960;2023-08-06T02:26:13;99651.03;;;13.98;100.00
39443;BME280;25147;52.142;9.960;2023-08-06T02:28:40;99654.28;;;14.04;100.00
39443;BME280;25147;52.142;9.960;2023-08-06T02:31:07;99668.28;;;14.05;100.00
39443;BME280;25147;52.142;9.960;2023-08-06T02:33:33;99657.75;;;14.05;100.00
39443;BME280;25147;52.142;9.960;2023-08-06T02:36:02;99614.25;;;13.76;100.00
39443;BME280;25147;52.142;9.960;2023-08-06T02:38:30;99588.72;;;13.57;100.00
39443;BME280;25147;52.142;9.960;2023-08-06T02:40:57;99654.34;;;14.03;100.00
39443;BME280;25147;52.142;9.960;2023-08-06T02:43:25;99637.97;;;13.96;100.00
39443;BME280;25147;52.142;9.960;2023-08-06T02:45:56;99635.84;;;14.04;100.00
39443;BME280;25147;52.142;9.960;2023-08-06T02:48:23;99621.75;;;14.05;100.00
39443;BME280;25147;52.142;9.960;2023-08-06T02:50:50;99623.47;;;14.07;100.00
39443;BME280;25147;52.142;9.960;2023-08-06T02:53:17;99579.66;;;13.85;100.00
39443;BME280;25147;52.142;9.960;2023-08-06T02:55:46;99620.75;;;14.08;100.00
39443;BME280;25147;52.142;9.960;2023-08-06T02:58:14;99625.97;;;14.10;100.00
39443;BME280;25147;52.142;9.960;2023-08-06T03:00:42;99611.03;;;14.10;100.00
39443;BME280;25147;52.142;9.960;2023-08-06T03:03:10;99511.03;;;13.50;100.00
39443;BME280;25147;52.142;9.960;2023-08-06T03:05:36;99530.47;;;13.67;100.00
39443;BME280;25147;52.142;9.960;2023-08-06T03:08:03;99526.06;;;13.67;100.00
39443;BME280;25147;52.142;9.960;2023-08-06T03:10:30;99544.47;;;13.88;100.00
39443;BME280;25147;52.142;9.960;2023-08-06T03:12:57;99587.41;;;14.09;100.00
39443;BME280;25147;52.142;9.960;2023-08-06T03:15:24;99463.38;;;13.37;100.00
39443;BME280;25147;52.142;9.960;2023-08-06T03:17:55;99437.59;;;13.25;100.00
39443;BME280;25147;52.142;9.960;2023-08-06T03:20:23;99584.78;;;14.09;100.00
39443;BME280;25147;52.142;9.960;2023-08-06T03:22:50;99240.28;;;11.86;100.00
39443;BME280;25147;52.142;9.960;2023-08-06T03:25:17;99581.78;;;14.16;100.00
39443;BME280;25147;52.142;9.960;2023-08-06T03:27:44;99530.53;;;13.85;100.00
39443;BME280;25147;52.142;9.960;2023-08-06T03:30:17;99496.13;;;13.70;100.00
39443;BME280;25147;52.142;9.960;2023-08-06T03:32:45;99289.72;;;12.39;100.00
39443;BME280;25147;52.142;9.960;2023-08-06T03:35:14;99429.97;;;13.19;100.00
39443;BME280;25147;52.142;9.960;2023-08-06T03:37:41;99574.44;;;14.04;100.00
39443;BME280;25147;52.142;9.960;2023-08-06T03:40:09;99475.13;;;13.49;100.00
39443;BME280;25147;52.142;9.960;2023-08-06T03:42:36;99577.00;;;14.05;100.00
39443;BME280;25147;52.142;9.960;2023-08-06T03:45:03;99574.53;;;14.02;100.00
39443;BME280;25147;52.142;9.960;2023-08-06T03:47:30;99473.28;;;13.31;100.00
39443;BME280;25147;52.142;9.960;2023-08-06T03:49:57;99445.00;;;13.15;100.00
39443;BME280;25147;52.142;9.960;2023-08-06T03:52:25;99441.38;;;13.18;100.00
39443;BME280;25147;52.142;9.960;2023-08-06T03:54:52;99556.84;;;13.85;100.00
39443;BME280;25147;52.142;9.960;2023-08-06T03:57:19;99560.91;;;13.93;100.00
39443;BME280;25147;52.142;9.960;2023-08-06T03:59:46;99556.66;;;13.90;100.00
39443;BME280;25147;52.142;9.960;2023-08-06T04:02:12;99483.09;;;13.48;100.00
39443;BME280;25147;52.142;9.960;2023-08-06T04:04:39;99498.41;;;13.38;100.00
39443;BME280;25147;52.142;9.960;2023-08-06T04:07:06;99520.06;;;13.63;100.00
39443;BME280;25147;52.142;9.960;2023-08-06T04:09:51;99494.00;;;13.38;100.00
39443;BME280;25147;52.142;9.960;2023-08-06T04:12:18;99525.81;;;13.53;100.00
39443;BME280;25147;52.142;9.960;2023-08-06T04:14:45;99451.91;;;13.18;100.00
39443;BME280;25147;52.142;9.960;2023-08-06T04:17:11;99555.47;;;13.77;100.00
39443;BME280;25147;52.142;9.960;2023-08-06T04:19:38;99427.38;;;12.97;100.00
39443;BME280;25147;52.142;9.960;2023-08-06T04:22:05;99551.97;;;13.76;100.00
39443;BME280;25147;52.142;9.960;2023-08-06T04:24:32;99554.66;;;13.75;100.00
39443;BME280;25147;52.142;9.960;2023-08-06T04:27:00;99557.38;;;13.73;100.00
39443;BME280;25147;52.142;9.960;2023-08-06T04:29:27;99559.19;;;13.71;100.00
39443;BME280;25147;52.142;9.960;2023-08-06T04:31:54;99535.75;;;13.46;100.00
39443;BME280;25147;52.142;9.960;2023-08-06T04:34:21;99532.38;;;13.42;100.00
39443;BME280;25147;52.142;9.960;2023-08-06T04:36:48;99566.19;;;13.72;100.00
39443;BME280;25147;52.142;9.960;2023-08-06T04:39:15;99563.47;;;13.74;100.00
39443;BME280;25147;52.142;9.960;2023-08-06T04:41:42;99467.72;;;13.16;100.00
39443;BME280;25147;52.142;9.960;2023-08-06T04:44:10;99498.25;;;13.41;100.00
39443;BME280;25147;52.142;9.960;2023-08-06T04:46:37;99279.56;;;11.88;100.00
39443;BME280;25147;52.142;9.960;2023-08-06T04:49:03;99519.03;;;13.47;100.00
39443;BME280;25147;52.142;9.960;2023-08-06T04:51:30;99576.25;;;13.83;100.00
39443;BME280;25147;52.142;9.960;2023-08-06T04:53:57;99574.41;;;13.85;100.00
39443;BME280;25147;52.142;9.960;2023-08-06T04:56:24;99575.13;;;13.89;100.00
39443;BME280;25147;52.142;9.960;2023-08-06T04:58:51;99137.03;;;11.24;100.00
39443;BME280;25147;52.142;9.960;2023-08-06T05:01:19;99147.84;;;11.38;100.00
39443;BME280;25147;52.142;9.960;2023-08-06T05:03:47;99565.41;;;13.91;100.00
39443;BME280;25147;52.142;9.960;2023-08-06T05:06:13;99515.53;;;13.67;100.00
39443;BME280;25147;52.142;9.960;2023-08-06T05:08:40;99483.09;;;13.48;100.00
39443;BME280;25147;52.142;9.960;2023-08-06T05:11:07;99560.72;;;13.97;100.00
39443;BME280;25147;52.142;9.960;2023-08-06T05:13:34;99560.59;;;14.00;100.00
39443;BME280;25147;52.142;9.960;2023-08-06T05:16:00;99522.38;;;13.71;100.00
39443;BME280;25147;52.142;9.960;2023-08-06T05:18:28;99482.16;;;13.49;100.00
39443;BME280;25147;52.142;9.960;2023-08-06T05:20:56;99570.84;;;14.07;100.00
39443;BME280;25147;52.142;9.960;2023-08-06T05:23:23;99390.94;;;12.89;100.00
39443;BME280;25147;52.142;9.960;2023-08-06T05:25:49;99569.13;;;14.05;100.00
39443;BME280;25147;52.142;9.960;2023-08-06T05:28:16;99567.44;;;14.04;100.00
39443;BME280;25147;52.142;9.960;2023-08-06T05:30:43;99564.78;;;14.04;100.00
39443;BME280;25147;52.142;9.960;2023-08-06T05:33:10;99558.59;;;14.05;100.00
39443;BME280;25147;52.142;9.960;2023-08-06T05:35:38;99572.69;;;14.04;100.00
39443;BME280;25147;52.142;9.960;2023-08-06T05:38:05;99436.00;;;13.21;100.00
39443;BME280;25147;52.142;9.960;2023-08-06T05:40:33;99558.81;;;14.01;100.00
39443;BME280;25147;52.142;9.960;2023-08-06T05:43:00;99502.13;;;13.53;100.00
39443;BME280;25147;52.142;9.960;2023-08-06T05:45:27;99514.53;;;13.70;100.00
39443;BME280;25147;52.142;9.960;2023-08-06T05:47:53;99551.19;;;13.95;100.00
39443;BME280;25147;52.142;9.960;2023-08-06T05:50:23;99295.09;;;12.36;100.00
39443;BME280;25147;52.142;9.960;2023-08-06T05:52:51;99480.63;;;13.43;100.00
39443;BME280;25147;52.142;9.960;2023-08-06T05:55:19;99554.84;;;14.11;100.00
39443;BME280;25147;52.142;9.960;2023-08-06T05:57:46;99515.47;;;13.89;100.00
39443;BME280;25147;52.142;9.960;2023-08-06T06:00:13;99316.34;;;12.73;100.00
39443;BME280;25147;52.142;9.960;2023-08-06T06:02:39;99548.34;;;14.18;100.00
39443;BME280;25147;52.142;9.960;2023-08-06T06:05:07;99278.25;;;12.62;100.00
39443;BME280;25147;52.142;9.960;2023-08-06T06:07:37;99547.22;;;14.24;100.00
39443;BME280;25147;52.142;9.960;2023-08-06T06:10:07;99264.09;;;12.46;100.00
39443;BME280;25147;52.142;9.960;2023-08-06T06:12:34;99516.97;;;14.14;100.00
39443;BME280;25147;52.142;9.960;2023-08-06T06:15:01;99276.16;;;12.71;100.00
39443;BME280;25147;52.142;9.960;2023-08-06T06:17:29;99115.38;;;11.63;100.00
39443;BME280;25147;52.142;9.960;2023-08-06T06:19:56;99546.72;;;14.35;100.00
39443;BME280;25147;52.142;9.960;2023-08-06T06:22:22;99494.69;;;14.02;100.00
39443;BME280;25147;52.142;9.960;2023-08-06T06:24:49;99400.28;;;13.37;100.00
39443;BME280;25147;52.142;9.960;2023-08-06T06:27:17;99509.53;;;14.23;100.00
39443;BME280;25147;52.142;9.960;2023-08-06T06:29:44;99483.84;;;14.10;100.00
39443;BME280;25147;52.142;9.960;2023-08-06T06:32:11;99422.47;;;13.70;100.00
39443;BME280;25147;52.142;9.960;2023-08-06T06:34:38;99534.78;;;14.47;100.00
39443;BME280;25147;52.142;9.960;2023-08-06T06:37:05;99534.25;;;14.59;100.00
39443;BME280;25147;52.142;9.960;2023-08-06T06:39:32;99529.63;;;14.64;100.00
39443;BME280;25147;52.142;9.960;2023-08-06T06:41:58;99531.91;;;14.72;100.00
39443;BME280;25147;52.142;9.960;2023-08-06T06:44:27;99475.44;;;14.39;100.00
39443;BME280;25147;52.142;9.960;2023-08-06T06:46:53;99526.25;;;14.79;100.00
39443;BME280;25147;52.142;9.960;2023-08-06T06:49:20;99530.44;;;14.83;100.00
39443;BME280;25147;52.142;9.960;2023-08-06T06:51:47;99529.47;;;14.86;100.00
39443;BME280;25147;52.142;9.960;2023-08-06T06:54:13;99481.38;;;14.63;100.00
39443;BME280;25147;52.142;9.960;2023-08-06T06:56:41;99525.09;;;14.85;100.00
39443;BME280;25147;52.142;9.960;2023-08-06T06:59:08;99307.81;;;13.65;100.00
39443;BME280;25147;52.142;9.960;2023-08-06T07:01:36;99531.50;;;14.98;100.00
39443;BME280;25147;52.142;9.960;2023-08-06T07:04:03;99235.63;;;13.35;100.00
39443;BME280;25147;52.142;9.960;2023-08-06T07:06:30;99341.88;;;14.07;100.00
39443;BME280;25147;52.142;9.960;2023-08-06T07:08:57;99514.00;;;15.15;100.00
39443;BME280;25147;52.142;9.960;2023-08-06T07:11:23;99512.84;;;15.20;100.00
39443;BME280;25147;52.142;9.960;2023-08-06T07:13:56;99524.00;;;15.25;100.00
39443;BME280;25147;52.142;9.960;2023-08-06T07:16:23;99523.75;;;15.30;100.00
39443;BME280;25147;52.142;9.960;2023-08-06T07:18:53;99485.13;;;15.12;100.00
39443;BME280;25147;52.142;9.960;2023-08-06T07:21:20;99477.34;;;15.10;100.00
39443;BME280;25147;52.142;9.960;2023-08-06T07:23:47;99392.00;;;14.59;100.00
39443;BME280;25147;52.142;9.960;2023-08-06T07:26:14;99517.03;;;15.42;100.00
39443;BME280;25147;52.142;9.960;2023-08-06T07:28:41;99345.16;;;14.47;100.00
39443;BME280;25147;52.142;9.960;2023-08-06T07:31:08;99163.09;;;13.31;100.00
39443;BME280;25147;52.142;9.960;2023-08-06T07:33:35;99496.25;;;15.53;100.00
39443;BME280;25147;52.142;9.960;2023-08-06T07:36:11;99355.59;;;14.67;100.00
39443;BME280;25147;52.142;9.960;2023-08-06T07:38:38;99500.19;;;15.62;100.00
39443;BME280;25147;52.142;9.960;2023-08-06T07:41:05;99454.81;;;15.38;100.00
39443;BME280;25147;52.142;9.960;2023-08-06T07:43:32;99504.28;;;15.68;100.00
39443;BME280;25147;52.142;9.960;2023-08-06T07:45:59;99547.94;;;15.75;100.00
39443;BME280;25147;52.142;9.960;2023-08-06T07:48:26;99393.50;;;14.99;100.00
39443;BME280;25147;52.142;9.960;2023-08-06T07:50:53;99538.69;;;15.83;100.00
39443;BME280;25147;52.142;9.960;2023-08-06T07:53:22;99451.41;;;15.53;100.00
39443;BME280;25147;52.142;9.960;2023-08-06T07:55:53;99430.28;;;15.53;100.00
39443;BME280;25147;52.142;9.960;2023-08-06T07:58:20;99509.28;;;16.07;100.00
39443;BME280;25147;52.142;9.960;2023-08-06T08:00:47;99507.00;;;16.17;100.00
39443;BME280;25147;52.142;9.960;2023-08-06T08:03:15;99503.19;;;16.22;100.00
39443;BME280;25147;52.142;9.960;2023-08-06T08:05:42;99435.31;;;15.75;100.00
39443;BME280;25147;52.142;9.960;2023-08-06T08:08:09;99396.13;;;15.68;100.00
39443;BME280;25147;52.142;9.960;2023-08-06T08:10:38;99498.91;;;16.36;100.00
39443;BME280;25147;52.142;9.960;2023-08-06T08:13:05;99402.69;;;15.76;100.00
39443;BME280;25147;52.142;9.960;2023-08-06T08:15:32;99334.25;;;15.40;100.00
39443;BME280;25147;52.142;9.960;2023-08-06T08:17:59;99448.41;;;16.10;100.00
39443;BME280;25147;52.142;9.960;2023-08-06T08:20:26;99506.16;;;16.48;100.00
39443;BME280;25147;52.142;9.960;2023-08-06T08:22:58;99458.19;;;16.24;100.00
39443;BME280;25147;52.142;9.960;2023-08-06T08:25:25;99403.56;;;15.93;100.00
39443;BME280;25147;52.142;9.960;2023-08-06T08:27:54;99505.66;;;16.57;100.00
39443;BME280;25147;52.142;9.960;2023-08-06T08:30:21;99442.25;;;16.25;100.00
39443;BME280;25147;52.142;9.960;2023-08-06T08:32:50;99455.63;;;16.38;100.00
39443;BME280;25147;52.142;9.960;2023-08-06T08:35:17;99499.44;;;16.74;100.00
39443;BME280;25147;52.142;9.960;2023-08-06T08:37:47;99499.97;;;16.81;100.00
39443;BME280;25147;52.142;9.960;2023-08-06T08:40:16;99328.41;;;15.84;100.00
39443;BME280;25147;52.142;9.960;2023-08-06T08:42:43;99479.50;;;16.84;100.00
39443;BME280;25147;52.142;9.960;2023-08-06T08:45:13;99400.94;;;16.24;100.00
39443;BME280;25147;52.142;9.960;2023-08-06T08:47:41;99416.75;;;16.56;100.00
39443;BME280;25147;52.142;9.960;2023-08-06T08:50:14;99490.72;;;17.04;100.00
39443;BME280;25147;52.142;9.960;2023-08-06T08:52:45;99223.50;;;15.40;100.00
39443;BME280;25147;52.142;9.960;2023-08-06T08:55:15;99259.06;;;15.49;100.00
39443;BME280;25147;52.142;9.960;2023-08-06T08:57:42;99469.34;;;16.93;100.00
39443;BME280;25147;52.142;9.960;2023-08-06T09:00:11;99506.47;;;17.05;100.00
39443;BME280;25147;52.142;9.960;2023-08-06T09:02:41;99283.78;;;15.79;100.00
39443;BME280;25147;52.142;9.960;2023-08-06T09:05:09;99288.47;;;15.90;100.00
39443;BME280;25147;52.142;9.960;2023-08-06T09:07:41;99482.91;;;17.17;100.00
39443;BME280;25147;52.142;9.960;2023-08-06T09:10:11;99313.59;;;16.28;100.00
39443;BME280;25147;52.142;9.960;2023-08-06T09:12:39;99358.84;;;16.68;100.00
39443;BME280;25147;52.142;9.960;2023-08-06T09:15:07;99478.09;;;17.54;100.00
39443;BME280;25147;52.142;9.960;2023-08-06T09:17:34;99312.19;;;16.52;100.00
39443;BME280;25147;52.142;9.960;2023-08-06T09:20:11;99329.41;;;16.90;100.00
39443;BME280;25147;52.142;9.960;2023-08-06T09:22:37;99468.91;;;17.90;100.00
39443;BME280;25147;52.142;9.960;2023-08-06T09:25:06;99215.66;;;16.47;100.00
39443;BME280;25147;52.142;9.960;2023-08-06T09:27:35;99471.31;;;18.21;100.00
39443;BME280;25147;52.142;9.960;2023-08-06T09:30:03;99391.34;;;17.88;100.00
39443;BME280;25147;52.142;9.960;2023-08-06T09:32:44;99224.13;;;16.82;100.00
39443;BME280;25147;52.142;9.960;2023-08-06T09:35:18;99461.56;;;18.36;100.00
39443;BME280;25147;52.142;9.960;2023-08-06T09:37:46;99392.47;;;17.98;100.00
39443;BME280;25147;52.142;9.960;2023-08-06T09:40:26;99463.91;;;18.41;100.00
39443;BME280;25147;52.142;9.960;2023-08-06T09:42:53;99418.63;;;18.17;100.00
39443;BME280;25147;52.142;9.960;2023-08-06T09:45:20;99338.94;;;17.64;99.73
39443;BME280;25147;52.142;9.960;2023-08-06T09:47:48;99473.56;;;18.42;98.91
39443;BME280;25147;52.142;9.960;2023-08-06T09:50:18;99472.81;;;18.40;100.00
39443;BME280;25147;52.142;9.960;2023-08-06T09:52:46;99467.63;;;18.38;98.83
39443;BME280;25147;52.142;9.960;2023-08-06T09:55:14;99459.75;;;18.37;99.58
39443;BME280;25147;52.142;9.960;2023-08-06T09:57:41;99224.78;;;16.86;98.65
39443;BME280;25147;52.142;9.960;2023-08-06T10:00:08;99344.91;;;17.53;98.78
39443;BME280;25147;52.142;9.960;2023-08-06T10:02:37;99391.88;;;17.93;97.44
39443;BME280;25147;52.142;9.960;2023-08-06T10:05:05;99457.28;;;18.34;97.90
39443;BME280;25147;52.142;9.960;2023-08-06T10:07:34;99422.25;;;18.16;97.16
39443;BME280;25147;52.142;9.960;2023-08-06T10:10:02;99463.34;;;18.36;97.23
39443;BME280;25147;52.142;9.960;2023-08-06T10:12:32;99435.72;;;18.25;98.04
39443;BME280;25147;52.142;9.960;2023-08-06T10:15:03;99311.72;;;17.62;95.95
39443;BME280;25147;52.142;9.960;2023-08-06T10:17:31;99364.84;;;18.02;94.80
39443;BME280;25147;52.142;9.960;2023-08-06T10:19:59;99448.94;;;18.54;94.37
39443;BME280;25147;52.142;9.960;2023-08-06T10:22:30;99364.63;;;18.05;94.78
39443;BME280;25147;52.142;9.960;2023-08-06T10:25:01;99197.09;;;17.05;93.74
39443;BME280;25147;52.142;9.960;2023-08-06T10:27:32;99453.34;;;18.54;94.01
39443;BME280;25147;52.142;9.960;2023-08-06T10:30:22;99435.94;;;18.50;92.80
39443;BME280;25147;52.142;9.960;2023-08-06T10:32:51;99438.91;;;18.45;92.69
39443;BME280;25147;52.142;9.960;2023-08-06T10:35:31;99390.31;;;18.17;93.15
39443;BME280;25147;52.142;9.960;2023-08-06T10:38:05;99346.25;;;17.89;91.92
39443;BME280;25147;52.142;9.960;2023-08-06T10:40:34;99400.44;;;18.25;91.55
39443;BME280;25147;52.142;9.960;2023-08-06T10:43:01;99404.41;;;18.32;90.78
39443;BME280;25147;52.142;9.960;2023-08-06T10:45:28;99351.38;;;18.05;89.70
39443;BME280;25147;52.142;9.960;2023-08-06T10:47:57;99210.13;;;17.23;89.88
39443;BME280;25147;52.142;9.960;2023-08-06T10:50:24;99309.25;;;17.88;91.77
39443;BME280;25147;52.142;9.960;2023-08-06T10:52:54;99230.66;;;17.61;90.38
39443;BME280;25147;52.142;9.960;2023-08-06T10:55:26;99345.53;;;18.27;88.28
39443;BME280;25147;52.142;9.960;2023-08-06T10:57:56;99284.22;;;18.06;89.13
39443;BME280;25147;52.142;9.960;2023-08-06T11:00:24;99336.50;;;18.44;87.67
39443;BME280;25147;52.142;9.960;2023-08-06T11:02:52;99405.06;;;19.03;86.79
39443;BME280;25147;52.142;9.960;2023-08-06T11:05:20;99363.88;;;18.84;87.38
39443;BME280;25147;52.142;9.960;2023-08-06T11:07:47;99160.38;;;17.70;85.05
39443;BME280;25147;52.142;9.960;2023-08-06T11:10:16;99365.06;;;18.93;83.20
39443;BME280;25147;52.142;9.960;2023-08-06T11:12:43;99191.50;;;17.93;85.93
39443;BME280;25147;52.142;9.960;2023-08-06T11:15:11;99393.63;;;19.28;84.29
39443;BME280;25147;52.142;9.960;2023-08-06T11:17:40;99402.84;;;19.35;82.29
39443;BME280;25147;52.142;9.960;2023-08-06T11:20:08;99249.47;;;18.63;84.84
39443;BME280;25147;52.142;9.960;2023-08-06T11:22:36;99307.22;;;18.98;82.65
39443;BME280;25147;52.142;9.960;2023-08-06T11:25:05;99249.81;;;18.84;81.58
39443;BME280;25147;52.142;9.960;2023-08-06T11:27:32;99221.19;;;18.77;80.19
39443;BME280;25147;52.142;9.960;2023-08-06T11:30:03;99392.38;;;19.72;80.57
39443;BME280;25147;52.142;9.960;2023-08-06T11:32:32;99156.16;;;18.45;80.15
39443;BME280;25147;52.142;9.960;2023-08-06T11:35:09;99385.44;;;19.95;79.48
39443;BME280;25147;52.142;9.960;2023-08-06T11:37:38;99307.72;;;19.55;78.46
39443;BME280;25147;52.142;9.960;2023-08-06T11:40:10;99214.41;;;19.11;77.00
39443;BME280;25147;52.142;9.960;2023-08-06T11:42:40;99392.16;;;20.12;75.98
39443;BME280;25147;52.142;9.960;2023-08-06T11:45:08;99218.53;;;19.15;75.56
39443;BME280;25147;52.142;9.960;2023-08-06T11:47:39;99370.06;;;20.12;73.67
39443;BME280;25147;52.142;9.960;2023-08-06T11:50:09;99091.53;;;18.22;73.05
39443;BME280;25147;52.142;9.960;2023-08-06T11:52:52;99360.97;;;19.90;74.19
39443;BME280;25147;52.142;9.960;2023-08-06T11:55:23;99213.97;;;19.17;74.20
39443;BME280;25147;52.142;9.960;2023-08-06T11:57:50;99280.72;;;19.61;73.66
39443;BME280;25147;52.142;9.960;2023-08-06T12:00:17;99239.28;;;19.34;73.61
39443;BME280;25147;52.142;9.960;2023-08-06T12:02:49;99384.44;;;20.09;73.53
39443;BME280;25147;52.142;9.960;2023-08-06T12:05:18;99363.13;;;20.22;73.27
39443;BME280;25147;52.142;9.960;2023-08-06T12:07:48;99348.41;;;20.29;72.63
39443;BME280;25147;52.142;9.960;2023-08-06T12:10:16;99165.97;;;19.20;71.54
39443;BME280;25147;52.142;9.960;2023-08-06T12:12:45;99362.75;;;20.39;69.36
39443;BME280;25147;52.142;9.960;2023-08-06T12:15:17;99347.00;;;20.36;69.46
39443;BME280;25147;52.142;9.960;2023-08-06T12:17:44;99314.16;;;20.13;68.70
39443;BME280;25147;52.142;9.960;2023-08-06T12:20:13;99140.13;;;18.98;69.53
39443;BME280;25147;52.142;9.960;2023-08-06T12:22:40;99238.53;;;19.69;70.82
39443;BME280;25147;52.142;9.960;2023-08-06T12:25:09;99333.81;;;20.35;70.35
39443;BME280;25147;52.142;9.960;2023-08-06T12:27:38;99328.78;;;20.43;69.91
39443;BME280;25147;52.142;9.960;2023-08-06T12:30:06;99280.94;;;20.19;70.35
39443;BME280;25147;52.142;9.960;2023-08-06T12:32:34;99166.50;;;19.50;69.97
39443;BME280;25147;52.142;9.960;2023-08-06T12:35:08;99259.66;;;20.08;69.64
39443;BME280;25147;52.142;9.960;2023-08-06T12:37:36;99326.91;;;20.56;68.70
39443;BME280;25147;52.142;9.960;2023-08-06T12:40:13;99326.59;;;20.61;69.12
39443;BME280;25147;52.142;9.960;2023-08-06T12:42:43;99202.78;;;19.86;70.20
39443;BME280;25147;52.142;9.960;2023-08-06T12:45:38;99331.22;;;20.70;69.50
39443;BME280;25147;52.142;9.960;2023-08-06T12:48:15;99094.59;;;19.29;68.82
39443;BME280;25147;52.142;9.960;2023-08-06T12:53:43;99182.78;;;19.93;68.09
39443;BME280;25147;52.142;9.960;2023-08-06T12:56:14;99184.25;;;19.97;66.35
39443;BME280;25147;52.142;9.960;2023-08-06T12:58:41;99166.19;;;19.78;65.09
39443;BME280;25147;52.142;9.960;2023-08-06T13:01:08;99003.22;;;18.84;64.63
39443;BME280;25147;52.142;9.960;2023-08-06T13:03:35;99347.56;;;20.77;63.98
39443;BME280;25147;52.142;9.960;2023-08-06T13:06:05;99086.28;;;19.33;63.93
39443;BME280;25147;52.142;9.960;2023-08-06T13:08:33;99093.94;;;19.38;63.79
39443;BME280;25147;52.142;9.960;2023-08-06T13:11:05;99190.59;;;19.83;64.78